<?xml version="1.0" encoding="UTF-8" standalone="no" ?>
<gpx xmlns="http://www.topografix.com/GPX/1/1" xmlns:xsi="http://www.w3.org/2001/XMLSchema-instance" xsi:schemaLocation="http://www.topografix.com/GPX/1/1 http://www.topografix.com/GPX/1/1/gpx.xsd" version="1.1" creator="VisuGPX - https://www.visugpx.com">
  <metadata>
    <name>Turquie_100points</name>
  </metadata>
  <trk>
    <name><![CDATA[Tour d'Europe étape 525]]></name>
    <extensions>
      <line xmlns="http://www.topografix.com/GPX/gpx_style/0/2">
        <color>FF00FF</color>
        <width>4</width>
      </line>
    </extensions>
    <trkseg>
      <trkpt lat="40.29485" lon="41.5473">
        <ele>1639.587871</ele>
        <time>2021-12-05T05:54:00.179Z</time>
      </trkpt>
      <trkpt lat="40.2942" lon="41.54698">
        <ele>1638.066019</ele>
        <time>2021-12-05T06:00:38.163Z</time>
      </trkpt>
      <trkpt lat="40.29231" lon="41.54847">
        <ele>1628.451238</ele>
        <time>2021-12-05T06:01:54.172Z</time>
      </trkpt>
      <trkpt lat="40.29053" lon="41.54986">
        <ele>1637.972258</ele>
        <time>2021-12-05T06:03:02.170Z</time>
      </trkpt>
      <trkpt lat="40.28884" lon="41.55155">
        <ele>1639.879658</ele>
        <time>2021-12-05T06:04:28.154Z</time>
      </trkpt>
      <trkpt lat="40.28752" lon="41.55356">
        <ele>1648.37033</ele>
        <time>2021-12-05T06:06:07.169Z</time>
      </trkpt>
      <trkpt lat="40.28613" lon="41.55566">
        <ele>1660.085632</ele>
        <time>2021-12-05T06:08:09.211Z</time>
      </trkpt>
      <trkpt lat="40.28423" lon="41.55663">
        <ele>1679.240791</ele>
        <time>2021-12-05T06:10:22.167Z</time>
      </trkpt>
      <trkpt lat="40.28228" lon="41.55722">
        <ele>1685.945333</ele>
        <time>2021-12-05T06:11:49.210Z</time>
      </trkpt>
      <trkpt lat="40.28024" lon="41.55779">
        <ele>1697.495865</ele>
        <time>2021-12-05T06:13:14.163Z</time>
      </trkpt>
      <trkpt lat="40.27826" lon="41.5581">
        <ele>1692.7816</ele>
        <time>2021-12-05T06:14:37.159Z</time>
      </trkpt>
      <trkpt lat="40.27619" lon="41.55785">
        <ele>1694.318901</ele>
        <time>2021-12-05T06:16:22.156Z</time>
      </trkpt>
      <trkpt lat="40.27433" lon="41.5572">
        <ele>1713.114732</ele>
        <time>2021-12-05T06:18:37.152Z</time>
      </trkpt>
      <trkpt lat="40.27249" lon="41.55635">
        <ele>1704.093581</ele>
        <time>2021-12-05T06:20:59.191Z</time>
      </trkpt>
      <trkpt lat="40.27074" lon="41.555">
        <ele>1690.787076</ele>
        <time>2021-12-05T06:22:35.178Z</time>
      </trkpt>
      <trkpt lat="40.26907" lon="41.5534">
        <ele>1712.458161</ele>
        <time>2021-12-05T06:24:32.195Z</time>
      </trkpt>
      <trkpt lat="40.26735" lon="41.5519">
        <ele>1743.641952</ele>
        <time>2021-12-05T06:26:57.168Z</time>
      </trkpt>
      <trkpt lat="40.26586" lon="41.55038">
        <ele>1757.04073</ele>
        <time>2021-12-05T06:29:25.150Z</time>
      </trkpt>
      <trkpt lat="40.2642" lon="41.54884">
        <ele>1770.876741</ele>
        <time>2021-12-05T06:31:46.214Z</time>
      </trkpt>
      <trkpt lat="40.26268" lon="41.5472">
        <ele>1791.751919</ele>
        <time>2021-12-05T06:34:05.179Z</time>
      </trkpt>
      <trkpt lat="40.26155" lon="41.54509">
        <ele>1800.037711</ele>
        <time>2021-12-05T06:37:06.176Z</time>
      </trkpt>
      <trkpt lat="40.26101" lon="41.54271">
        <ele>1800.06073</ele>
        <time>2021-12-05T06:39:23.179Z</time>
      </trkpt>
      <trkpt lat="40.25979" lon="41.5406">
        <ele>1811.31051</ele>
        <time>2021-12-05T06:41:55.172Z</time>
      </trkpt>
      <trkpt lat="40.25807" lon="41.53941">
        <ele>1843.349838</ele>
        <time>2021-12-05T06:44:24.185Z</time>
      </trkpt>
      <trkpt lat="40.25699" lon="41.53727">
        <ele>1910.738241</ele>
        <time>2021-12-05T06:47:27.183Z</time>
      </trkpt>
      <trkpt lat="40.2557" lon="41.53522">
        <ele>1931.184974</ele>
        <time>2021-12-05T06:50:23.211Z</time>
      </trkpt>
      <trkpt lat="40.25441" lon="41.53329">
        <ele>1924.124515</ele>
        <time>2021-12-05T06:52:27.186Z</time>
      </trkpt>
      <trkpt lat="40.2539" lon="41.53088">
        <ele>1923.836044</ele>
        <time>2021-12-05T06:54:57.178Z</time>
      </trkpt>
      <trkpt lat="40.25304" lon="41.5287">
        <ele>1950.9748</ele>
        <time>2021-12-05T06:57:55.176Z</time>
      </trkpt>
      <trkpt lat="40.25196" lon="41.52646">
        <ele>1933.857209</ele>
        <time>2021-12-05T07:00:31.187Z</time>
      </trkpt>
      <trkpt lat="40.25118" lon="41.52416">
        <ele>1932.846604</ele>
        <time>2021-12-05T07:08:02.184Z</time>
      </trkpt>
      <trkpt lat="40.24977" lon="41.52211">
        <ele>1948.242366</ele>
        <time>2021-12-05T07:09:46.185Z</time>
      </trkpt>
      <trkpt lat="40.24878" lon="41.51998">
        <ele>1949.106165</ele>
        <time>2021-12-05T07:11:35.228Z</time>
      </trkpt>
      <trkpt lat="40.24762" lon="41.51775">
        <ele>1945.620616</ele>
        <time>2021-12-05T07:13:15.233Z</time>
      </trkpt>
      <trkpt lat="40.24627" lon="41.51574">
        <ele>1939.158612</ele>
        <time>2021-12-05T07:14:48.181Z</time>
      </trkpt>
      <trkpt lat="40.24495" lon="41.51381">
        <ele>1941.180197</ele>
        <time>2021-12-05T07:16:40.207Z</time>
      </trkpt>
      <trkpt lat="40.24352" lon="41.51185">
        <ele>1944.119053</ele>
        <time>2021-12-05T07:18:22.196Z</time>
      </trkpt>
      <trkpt lat="40.2417" lon="41.51094">
        <ele>1946.622629</ele>
        <time>2021-12-05T07:19:57.204Z</time>
      </trkpt>
      <trkpt lat="40.23961" lon="41.51069">
        <ele>1952.550473</ele>
        <time>2021-12-05T07:21:44.214Z</time>
      </trkpt>
      <trkpt lat="40.23783" lon="41.50968">
        <ele>1967.048832</ele>
        <time>2021-12-05T07:23:48.181Z</time>
      </trkpt>
      <trkpt lat="40.23647" lon="41.50767">
        <ele>1967.909122</ele>
        <time>2021-12-05T07:26:08.177Z</time>
      </trkpt>
      <trkpt lat="40.23523" lon="41.50574">
        <ele>1979.557584</ele>
        <time>2021-12-05T07:28:42.185Z</time>
      </trkpt>
      <trkpt lat="40.23391" lon="41.5037">
        <ele>1993.06555</ele>
        <time>2021-12-05T07:31:52.185Z</time>
      </trkpt>
      <trkpt lat="40.23277" lon="41.50159">
        <ele>1997.231578</ele>
        <time>2021-12-05T07:34:55.180Z</time>
      </trkpt>
      <trkpt lat="40.23182" lon="41.49941">
        <ele>2005.506546</ele>
        <time>2021-12-05T07:37:29.196Z</time>
      </trkpt>
      <trkpt lat="40.23082" lon="41.49708">
        <ele>2016.941253</ele>
        <time>2021-12-05T07:40:10.229Z</time>
      </trkpt>
      <trkpt lat="40.22984" lon="41.49492">
        <ele>2031.886678</ele>
        <time>2021-12-05T07:42:56.188Z</time>
      </trkpt>
      <trkpt lat="40.22883" lon="41.49265">
        <ele>2051.650904</ele>
        <time>2021-12-05T07:46:20.201Z</time>
      </trkpt>
      <trkpt lat="40.22791" lon="41.49046">
        <ele>2065.806548</ele>
        <time>2021-12-05T07:49:27.185Z</time>
      </trkpt>
      <trkpt lat="40.22705" lon="41.48809">
        <ele>2076.983965</ele>
        <time>2021-12-05T07:52:16.186Z</time>
      </trkpt>
      <trkpt lat="40.2263" lon="41.48572">
        <ele>2083.650467</ele>
        <time>2021-12-05T07:57:49.199Z</time>
      </trkpt>
      <trkpt lat="40.22562" lon="41.48324">
        <ele>2094.407702</ele>
        <time>2021-12-05T08:00:34.185Z</time>
      </trkpt>
      <trkpt lat="40.22493" lon="41.48076">
        <ele>2104.944834</ele>
        <time>2021-12-05T08:03:17.227Z</time>
      </trkpt>
      <trkpt lat="40.22421" lon="41.47842">
        <ele>2119.543446</ele>
        <time>2021-12-05T08:05:53.197Z</time>
      </trkpt>
      <trkpt lat="40.22305" lon="41.47633">
        <ele>2135.272472</ele>
        <time>2021-12-05T08:08:41.211Z</time>
      </trkpt>
      <trkpt lat="40.22145" lon="41.47493">
        <ele>2141.040695</ele>
        <time>2021-12-05T08:11:17.210Z</time>
      </trkpt>
      <trkpt lat="40.2195" lon="41.47417">
        <ele>2144.19519</ele>
        <time>2021-12-05T08:13:27.201Z</time>
      </trkpt>
      <trkpt lat="40.21736" lon="41.47411">
        <ele>2142.039765</ele>
        <time>2021-12-05T08:30:35.599Z</time>
      </trkpt>
      <trkpt lat="40.21515" lon="41.47389">
        <ele>2132.448119</ele>
        <time>2021-12-05T08:31:38.569Z</time>
      </trkpt>
      <trkpt lat="40.21283" lon="41.4737">
        <ele>2120.532328</ele>
        <time>2021-12-05T08:32:18.579Z</time>
      </trkpt>
      <trkpt lat="40.21039" lon="41.47352">
        <ele>2113.07007</ele>
        <time>2021-12-05T08:33:00.613Z</time>
      </trkpt>
      <trkpt lat="40.20822" lon="41.47336">
        <ele>2108.626308</ele>
        <time>2021-12-05T08:33:42.589Z</time>
      </trkpt>
      <trkpt lat="40.20626" lon="41.47323">
        <ele>2104.842296</ele>
        <time>2021-12-05T08:34:22.587Z</time>
      </trkpt>
      <trkpt lat="40.20418" lon="41.47306">
        <ele>2102.995879</ele>
        <time>2021-12-05T08:35:04.596Z</time>
      </trkpt>
      <trkpt lat="40.20211" lon="41.47279">
        <ele>2101.454929</ele>
        <time>2021-12-05T08:35:50.597Z</time>
      </trkpt>
      <trkpt lat="40.19979" lon="41.47215">
        <ele>2097.094397</ele>
        <time>2021-12-05T08:36:54.572Z</time>
      </trkpt>
      <trkpt lat="40.19765" lon="41.47109">
        <ele>2087.917765</ele>
        <time>2021-12-05T08:37:38.585Z</time>
      </trkpt>
      <trkpt lat="40.19568" lon="41.46964">
        <ele>2080.858629</ele>
        <time>2021-12-05T08:38:21.575Z</time>
      </trkpt>
      <trkpt lat="40.19402" lon="41.4682">
        <ele>2074.374766</ele>
        <time>2021-12-05T08:39:02.583Z</time>
      </trkpt>
      <trkpt lat="40.19224" lon="41.46667">
        <ele>2069.81524</ele>
        <time>2021-12-05T08:39:44.581Z</time>
      </trkpt>
      <trkpt lat="40.19049" lon="41.46515">
        <ele>2062.264325</ele>
        <time>2021-12-05T08:40:26.576Z</time>
      </trkpt>
      <trkpt lat="40.18875" lon="41.4636">
        <ele>2057.481011</ele>
        <time>2021-12-05T08:41:06.595Z</time>
      </trkpt>
      <trkpt lat="40.18682" lon="41.46177">
        <ele>2057.650137</ele>
        <time>2021-12-05T08:41:58.587Z</time>
      </trkpt>
      <trkpt lat="40.18522" lon="41.45984">
        <ele>2056.387292</ele>
        <time>2021-12-05T08:42:46.582Z</time>
      </trkpt>
      <trkpt lat="40.18378" lon="41.45741">
        <ele>2047.728623</ele>
        <time>2021-12-05T08:43:29.584Z</time>
      </trkpt>
      <trkpt lat="40.18228" lon="41.45489">
        <ele>2041.945169</ele>
        <time>2021-12-05T08:44:11.645Z</time>
      </trkpt>
      <trkpt lat="40.18123" lon="41.45259">
        <ele>2036.737346</ele>
        <time>2021-12-05T08:44:54.609Z</time>
      </trkpt>
      <trkpt lat="40.18019" lon="41.45014">
        <ele>2033.289816</ele>
        <time>2021-12-05T08:45:41.636Z</time>
      </trkpt>
      <trkpt lat="40.17913" lon="41.44755">
        <ele>2031.594715</ele>
        <time>2021-12-05T08:46:31.599Z</time>
      </trkpt>
      <trkpt lat="40.17794" lon="41.44484">
        <ele>2021.605899</ele>
        <time>2021-12-05T08:47:13.597Z</time>
      </trkpt>
      <trkpt lat="40.17679" lon="41.44234">
        <ele>2016.21391</ele>
        <time>2021-12-05T08:48:06.583Z</time>
      </trkpt>
      <trkpt lat="40.17508" lon="41.43967">
        <ele>2008.41174</ele>
        <time>2021-12-05T08:49:09.591Z</time>
      </trkpt>
      <trkpt lat="40.17316" lon="41.43802">
        <ele>2003.148441</ele>
        <time>2021-12-05T08:50:01.591Z</time>
      </trkpt>
      <trkpt lat="40.17096" lon="41.43701">
        <ele>2006.97112</ele>
        <time>2021-12-05T08:50:54.622Z</time>
      </trkpt>
      <trkpt lat="40.16882" lon="41.43626">
        <ele>2004.806347</ele>
        <time>2021-12-05T08:51:44.571Z</time>
      </trkpt>
      <trkpt lat="40.16655" lon="41.43553">
        <ele>2004.999595</ele>
        <time>2021-12-05T08:52:36.598Z</time>
      </trkpt>
      <trkpt lat="40.16463" lon="41.43481">
        <ele>2002.347048</ele>
        <time>2021-12-05T08:53:18.599Z</time>
      </trkpt>
      <trkpt lat="40.16262" lon="41.4342">
        <ele>2000.333117</ele>
        <time>2021-12-05T08:54:00.579Z</time>
      </trkpt>
      <trkpt lat="40.16061" lon="41.43351">
        <ele>1998.979218</ele>
        <time>2021-12-05T08:54:42.628Z</time>
      </trkpt>
      <trkpt lat="40.15867" lon="41.43288">
        <ele>1995.214301</ele>
        <time>2021-12-05T08:55:22.589Z</time>
      </trkpt>
      <trkpt lat="40.15626" lon="41.43251">
        <ele>1985.606224</ele>
        <time>2021-12-05T08:56:04.581Z</time>
      </trkpt>
      <trkpt lat="40.15375" lon="41.43314">
        <ele>1974.619507</ele>
        <time>2021-12-05T08:56:44.598Z</time>
      </trkpt>
      <trkpt lat="40.15126" lon="41.43365">
        <ele>1968.326326</ele>
        <time>2021-12-05T08:57:26.599Z</time>
      </trkpt>
      <trkpt lat="40.14914" lon="41.43373">
        <ele>1966.696035</ele>
        <time>2021-12-05T08:58:07.586Z</time>
      </trkpt>
      <trkpt lat="40.14697" lon="41.43346">
        <ele>1962.413594</ele>
        <time>2021-12-05T08:58:52.590Z</time>
      </trkpt>
      <trkpt lat="40.14502" lon="41.43293">
        <ele>1959.826674</ele>
        <time>2021-12-05T08:59:32.586Z</time>
      </trkpt>
      <trkpt lat="40.14298" lon="41.43203">
        <ele>1959.09585</ele>
        <time>2021-12-05T09:00:17.600Z</time>
      </trkpt>
      <trkpt lat="40.14105" lon="41.43096">
        <ele>1955.121328</ele>
        <time>2021-12-05T09:01:00.607Z</time>
      </trkpt>
      <trkpt lat="40.13926" lon="41.42983">
        <ele>1951.621846</ele>
        <time>2021-12-05T09:01:40.594Z</time>
      </trkpt>
      <trkpt lat="40.13738" lon="41.42844">
        <ele>1948.796277</ele>
        <time>2021-12-05T09:02:22.603Z</time>
      </trkpt>
      <trkpt lat="40.13557" lon="41.42694">
        <ele>1946.36883</ele>
        <time>2021-12-05T09:03:02.610Z</time>
      </trkpt>
      <trkpt lat="40.13366" lon="41.42533">
        <ele>1943.952609</ele>
        <time>2021-12-05T09:03:46.609Z</time>
      </trkpt>
      <trkpt lat="40.13168" lon="41.42396">
        <ele>1935.388502</ele>
        <time>2021-12-05T09:04:26.611Z</time>
      </trkpt>
      <trkpt lat="40.12902" lon="41.42252">
        <ele>1924.45281</ele>
        <time>2021-12-05T09:05:08.602Z</time>
      </trkpt>
      <trkpt lat="40.1264" lon="41.42166">
        <ele>1920.911985</ele>
        <time>2021-12-05T09:05:48.591Z</time>
      </trkpt>
      <trkpt lat="40.1242" lon="41.42095">
        <ele>1916.671434</ele>
        <time>2021-12-05T09:06:30.635Z</time>
      </trkpt>
      <trkpt lat="40.12233" lon="41.41957">
        <ele>1912.217333</ele>
        <time>2021-12-05T09:07:12.601Z</time>
      </trkpt>
      <trkpt lat="40.12081" lon="41.41763">
        <ele>1912.2632</ele>
        <time>2021-12-05T09:07:52.610Z</time>
      </trkpt>
      <trkpt lat="40.11927" lon="41.41548">
        <ele>1909.928739</ele>
        <time>2021-12-05T09:08:34.612Z</time>
      </trkpt>
      <trkpt lat="40.11777" lon="41.41343">
        <ele>1906.531843</ele>
        <time>2021-12-05T09:09:14.601Z</time>
      </trkpt>
      <trkpt lat="40.11621" lon="41.41115">
        <ele>1902.6806</ele>
        <time>2021-12-05T09:09:56.596Z</time>
      </trkpt>
      <trkpt lat="40.11532" lon="41.40877">
        <ele>1901.438911</ele>
        <time>2021-12-05T09:10:37.608Z</time>
      </trkpt>
      <trkpt lat="40.11456" lon="41.40606">
        <ele>1891.518843</ele>
        <time>2021-12-05T09:11:19.600Z</time>
      </trkpt>
      <trkpt lat="40.11388" lon="41.40355">
        <ele>1886.079509</ele>
        <time>2021-12-05T09:11:59.607Z</time>
      </trkpt>
      <trkpt lat="40.1131" lon="41.40097">
        <ele>1888.526825</ele>
        <time>2021-12-05T09:12:41.608Z</time>
      </trkpt>
      <trkpt lat="40.11227" lon="41.39817">
        <ele>1895.637135</ele>
        <time>2021-12-05T09:13:23.607Z</time>
      </trkpt>
      <trkpt lat="40.11153" lon="41.39546">
        <ele>1887.798007</ele>
        <time>2021-12-05T09:14:03.592Z</time>
      </trkpt>
      <trkpt lat="40.11077" lon="41.39285">
        <ele>1886.300828</ele>
        <time>2021-12-05T09:14:47.602Z</time>
      </trkpt>
      <trkpt lat="40.11002" lon="41.39033">
        <ele>1892.604499</ele>
        <time>2021-12-05T09:15:47.606Z</time>
      </trkpt>
      <trkpt lat="40.10926" lon="41.38767">
        <ele>1901.052725</ele>
        <time>2021-12-05T09:16:59.608Z</time>
      </trkpt>
      <trkpt lat="40.10854" lon="41.38509">
        <ele>1906.088056</ele>
        <time>2021-12-05T09:18:20.599Z</time>
      </trkpt>
      <trkpt lat="40.10783" lon="41.38245">
        <ele>1900.492633</ele>
        <time>2021-12-05T09:19:31.600Z</time>
      </trkpt>
      <trkpt lat="40.10692" lon="41.37988">
        <ele>1891.630995</ele>
        <time>2021-12-05T09:20:13.615Z</time>
      </trkpt>
      <trkpt lat="40.10547" lon="41.37738">
        <ele>1877.201473</ele>
        <time>2021-12-05T09:20:55.610Z</time>
      </trkpt>
      <trkpt lat="40.10362" lon="41.3755">
        <ele>1880.154846</ele>
        <time>2021-12-05T09:21:47.600Z</time>
      </trkpt>
      <trkpt lat="40.10162" lon="41.3743">
        <ele>1885.96118</ele>
        <time>2021-12-05T09:22:42.610Z</time>
      </trkpt>
      <trkpt lat="40.09924" lon="41.37307">
        <ele>1880.956058</ele>
        <time>2021-12-05T09:23:24.606Z</time>
      </trkpt>
      <trkpt lat="40.09659" lon="41.37173">
        <ele>1872.316749</ele>
        <time>2021-12-05T09:24:02.619Z</time>
      </trkpt>
      <trkpt lat="40.09454" lon="41.37068">
        <ele>1861.49083</ele>
        <time>2021-12-05T09:24:23.624Z</time>
      </trkpt>
      <trkpt lat="40.09258" lon="41.36969">
        <ele>1854.741425</ele>
        <time>2021-12-05T09:24:43.612Z</time>
      </trkpt>
      <trkpt lat="40.08991" lon="41.36833">
        <ele>1847.213218</ele>
        <time>2021-12-05T09:25:19.605Z</time>
      </trkpt>
      <trkpt lat="40.08747" lon="41.36707">
        <ele>1843.042169</ele>
        <time>2021-12-05T09:25:59.609Z</time>
      </trkpt>
      <trkpt lat="40.08518" lon="41.36592">
        <ele>1839.06505</ele>
        <time>2021-12-05T09:26:41.622Z</time>
      </trkpt>
      <trkpt lat="40.08313" lon="41.36487">
        <ele>1836.147625</ele>
        <time>2021-12-05T09:27:23.600Z</time>
      </trkpt>
      <trkpt lat="40.081" lon="41.36382">
        <ele>1833.530497</ele>
        <time>2021-12-05T09:28:03.607Z</time>
      </trkpt>
      <trkpt lat="40.07875" lon="41.36266">
        <ele>1827.964172</ele>
        <time>2021-12-05T09:28:45.625Z</time>
      </trkpt>
      <trkpt lat="40.07638" lon="41.36148">
        <ele>1823.356918</ele>
        <time>2021-12-05T09:29:25.625Z</time>
      </trkpt>
      <trkpt lat="40.07386" lon="41.36018">
        <ele>1818.27526</ele>
        <time>2021-12-05T09:30:07.612Z</time>
      </trkpt>
      <trkpt lat="40.0717" lon="41.35907">
        <ele>1814.138229</ele>
        <time>2021-12-05T09:30:47.649Z</time>
      </trkpt>
      <trkpt lat="40.06962" lon="41.35803">
        <ele>1812.229564</ele>
        <time>2021-12-05T09:31:29.610Z</time>
      </trkpt>
      <trkpt lat="40.06766" lon="41.35704">
        <ele>1811.897563</ele>
        <time>2021-12-05T09:32:09.628Z</time>
      </trkpt>
      <trkpt lat="40.06554" lon="41.35587">
        <ele>1810.386058</ele>
        <time>2021-12-05T09:32:51.609Z</time>
      </trkpt>
      <trkpt lat="40.06339" lon="41.3544">
        <ele>1805.382188</ele>
        <time>2021-12-05T09:33:33.621Z</time>
      </trkpt>
      <trkpt lat="40.06161" lon="41.35298">
        <ele>1801.611375</ele>
        <time>2021-12-05T09:34:13.632Z</time>
      </trkpt>
      <trkpt lat="40.05989" lon="41.35135">
        <ele>1798.775755</ele>
        <time>2021-12-05T09:34:55.621Z</time>
      </trkpt>
      <trkpt lat="40.05817" lon="41.34975">
        <ele>1796.91074</ele>
        <time>2021-12-05T09:35:35.620Z</time>
      </trkpt>
      <trkpt lat="40.05628" lon="41.34798">
        <ele>1794.458928</ele>
        <time>2021-12-05T09:36:17.667Z</time>
      </trkpt>
      <trkpt lat="40.05452" lon="41.3463">
        <ele>1793.391835</ele>
        <time>2021-12-05T09:36:57.621Z</time>
      </trkpt>
      <trkpt lat="40.05273" lon="41.34461">
        <ele>1791.619826</ele>
        <time>2021-12-05T09:37:39.627Z</time>
      </trkpt>
      <trkpt lat="40.05107" lon="41.343">
        <ele>1790.311546</ele>
        <time>2021-12-05T09:38:19.623Z</time>
      </trkpt>
      <trkpt lat="40.04933" lon="41.34134">
        <ele>1790.054632</ele>
        <time>2021-12-05T09:39:01.608Z</time>
      </trkpt>
      <trkpt lat="40.04757" lon="41.33969">
        <ele>1792.483415</ele>
        <time>2021-12-05T09:39:43.622Z</time>
      </trkpt>
      <trkpt lat="40.04595" lon="41.33817">
        <ele>1793.809839</ele>
        <time>2021-12-05T09:40:23.606Z</time>
      </trkpt>
      <trkpt lat="40.04428" lon="41.33655">
        <ele>1792.220022</ele>
        <time>2021-12-05T09:41:05.620Z</time>
      </trkpt>
      <trkpt lat="40.04262" lon="41.33499">
        <ele>1788.832738</ele>
        <time>2021-12-05T09:41:49.623Z</time>
      </trkpt>
      <trkpt lat="40.04093" lon="41.33344">
        <ele>1788.876481</ele>
        <time>2021-12-05T09:42:31.628Z</time>
      </trkpt>
      <trkpt lat="40.03914" lon="41.33221">
        <ele>1793.647106</ele>
        <time>2021-12-05T09:43:16.619Z</time>
      </trkpt>
      <trkpt lat="40.03762" lon="41.33031">
        <ele>1787.648733</ele>
        <time>2021-12-05T10:13:39.585Z</time>
      </trkpt>
      <trkpt lat="40.0358" lon="41.32857">
        <ele>1784.47392</ele>
        <time>2021-12-05T10:14:38.575Z</time>
      </trkpt>
      <trkpt lat="40.03404" lon="41.3269">
        <ele>1785.23199</ele>
        <time>2021-12-05T10:15:26.586Z</time>
      </trkpt>
      <trkpt lat="40.03233" lon="41.32528">
        <ele>1785.941478</ele>
        <time>2021-12-05T10:16:08.593Z</time>
      </trkpt>
      <trkpt lat="40.03078" lon="41.32372">
        <ele>1784.327862</ele>
        <time>2021-12-05T10:16:49.607Z</time>
      </trkpt>
      <trkpt lat="40.02911" lon="41.32223">
        <ele>1784.262488</ele>
        <time>2021-12-05T10:17:31.576Z</time>
      </trkpt>
      <trkpt lat="40.02746" lon="41.32068">
        <ele>1784.378991</ele>
        <time>2021-12-05T10:18:15.601Z</time>
      </trkpt>
      <trkpt lat="40.02556" lon="41.31886">
        <ele>1783.584228</ele>
        <time>2021-12-05T10:19:08.584Z</time>
      </trkpt>
      <trkpt lat="40.02362" lon="41.31717">
        <ele>1782.448278</ele>
        <time>2021-12-05T10:20:03.591Z</time>
      </trkpt>
      <trkpt lat="40.02126" lon="41.31562">
        <ele>1781.140701</ele>
        <time>2021-12-05T10:21:06.589Z</time>
      </trkpt>
      <trkpt lat="40.01887" lon="41.31459">
        <ele>1781.053193</ele>
        <time>2021-12-05T10:22:06.597Z</time>
      </trkpt>
      <trkpt lat="40.01656" lon="41.31384">
        <ele>1782.524491</ele>
        <time>2021-12-05T10:23:00.583Z</time>
      </trkpt>
      <trkpt lat="40.01407" lon="41.31305">
        <ele>1783.035773</ele>
        <time>2021-12-05T10:24:02.597Z</time>
      </trkpt>
      <trkpt lat="40.01171" lon="41.3123">
        <ele>1782.590523</ele>
        <time>2021-12-05T10:25:01.587Z</time>
      </trkpt>
      <trkpt lat="40.00918" lon="41.31149">
        <ele>1782.335474</ele>
        <time>2021-12-05T10:26:04.594Z</time>
      </trkpt>
      <trkpt lat="40.0068" lon="41.31074">
        <ele>1781.910542</ele>
        <time>2021-12-05T10:27:04.581Z</time>
      </trkpt>
      <trkpt lat="40.00431" lon="41.30995">
        <ele>1782.087307</ele>
        <time>2021-12-05T10:28:07.581Z</time>
      </trkpt>
      <trkpt lat="40.00193" lon="41.30919">
        <ele>1781.467208</ele>
        <time>2021-12-05T10:29:07.637Z</time>
      </trkpt>
      <trkpt lat="39.99937" lon="41.30839">
        <ele>1780.695236</ele>
        <time>2021-12-05T10:30:10.633Z</time>
      </trkpt>
      <trkpt lat="39.99702" lon="41.30766">
        <ele>1779.551825</ele>
        <time>2021-12-05T10:31:06.587Z</time>
      </trkpt>
      <trkpt lat="39.99445" lon="41.30686">
        <ele>1779.932496</ele>
        <time>2021-12-05T10:32:08.609Z</time>
      </trkpt>
      <trkpt lat="39.99192" lon="41.30607">
        <ele>1778.500847</ele>
        <time>2021-12-05T10:33:08.603Z</time>
      </trkpt>
      <trkpt lat="39.98953" lon="41.30532">
        <ele>1776.411416</ele>
        <time>2021-12-05T10:34:08.597Z</time>
      </trkpt>
      <trkpt lat="39.987" lon="41.30453">
        <ele>1777.83188</ele>
        <time>2021-12-05T10:35:11.593Z</time>
      </trkpt>
      <trkpt lat="39.98468" lon="41.30376">
        <ele>1777.020595</ele>
        <time>2021-12-05T10:36:11.615Z</time>
      </trkpt>
      <trkpt lat="39.9823" lon="41.30298">
        <ele>1779.014575</ele>
        <time>2021-12-05T10:37:14.605Z</time>
      </trkpt>
      <trkpt lat="39.97995" lon="41.30222">
        <ele>1779.807461</ele>
        <time>2021-12-05T10:38:14.597Z</time>
      </trkpt>
      <trkpt lat="39.97744" lon="41.30141">
        <ele>1780.513683</ele>
        <time>2021-12-05T10:39:17.615Z</time>
      </trkpt>
      <trkpt lat="39.97518" lon="41.30068">
        <ele>1782.214451</ele>
        <time>2021-12-05T10:40:17.592Z</time>
      </trkpt>
      <trkpt lat="39.9729" lon="41.29993">
        <ele>1782.363294</ele>
        <time>2021-12-05T10:41:20.580Z</time>
      </trkpt>
      <trkpt lat="39.97058" lon="41.29922">
        <ele>1782.22804</ele>
        <time>2021-12-05T10:42:23.594Z</time>
      </trkpt>
      <trkpt lat="39.96843" lon="41.29854">
        <ele>1783.452368</ele>
        <time>2021-12-05T10:43:23.605Z</time>
      </trkpt>
      <trkpt lat="39.9662" lon="41.2978">
        <ele>1784.368729</ele>
        <time>2021-12-05T10:44:26.632Z</time>
      </trkpt>
      <trkpt lat="39.96405" lon="41.29713">
        <ele>1785.896131</ele>
        <time>2021-12-05T10:45:26.611Z</time>
      </trkpt>
      <trkpt lat="39.96173" lon="41.29639">
        <ele>1785.809501</ele>
        <time>2021-12-05T10:46:29.595Z</time>
      </trkpt>
      <trkpt lat="39.95965" lon="41.29568">
        <ele>1789.794194</ele>
        <time>2021-12-05T10:47:37.608Z</time>
      </trkpt>
      <trkpt lat="39.9575" lon="41.29501">
        <ele>1793.230694</ele>
        <time>2021-12-05T10:48:58.620Z</time>
      </trkpt>
      <trkpt lat="39.95536" lon="41.29432">
        <ele>1790.812251</ele>
        <time>2021-12-05T10:49:44.607Z</time>
      </trkpt>
      <trkpt lat="39.95299" lon="41.29356">
        <ele>1800.829253</ele>
        <time>2021-12-05T10:50:46.598Z</time>
      </trkpt>
      <trkpt lat="39.95087" lon="41.29265">
        <ele>1804.716476</ele>
        <time>2021-12-05T10:51:47.611Z</time>
      </trkpt>
      <trkpt lat="39.94891" lon="41.29247">
        <ele>1803.555235</ele>
        <time>2021-12-05T10:55:55.613Z</time>
      </trkpt>
      <trkpt lat="39.94681" lon="41.29176">
        <ele>1805.68039</ele>
        <time>2021-12-05T10:57:08.614Z</time>
      </trkpt>
      <trkpt lat="39.94474" lon="41.29112">
        <ele>1811.100302</ele>
        <time>2021-12-05T10:58:34.612Z</time>
      </trkpt>
      <trkpt lat="39.9427" lon="41.29042">
        <ele>1814.782385</ele>
        <time>2021-12-05T10:59:42.606Z</time>
      </trkpt>
      <trkpt lat="39.94079" lon="41.28981">
        <ele>1816.780412</ele>
        <time>2021-12-05T11:00:44.605Z</time>
      </trkpt>
      <trkpt lat="39.93881" lon="41.28898">
        <ele>1819.793286</ele>
        <time>2021-12-05T11:01:52.599Z</time>
      </trkpt>
      <trkpt lat="39.93685" lon="41.28821">
        <ele>1826.573707</ele>
        <time>2021-12-05T11:02:58.617Z</time>
      </trkpt>
      <trkpt lat="39.9348" lon="41.28738">
        <ele>1837.294627</ele>
        <time>2021-12-05T11:04:15.605Z</time>
      </trkpt>
      <trkpt lat="39.93264" lon="41.28646">
        <ele>1853.380831</ele>
        <time>2021-12-05T11:05:41.587Z</time>
      </trkpt>
      <trkpt lat="39.93069" lon="41.28571">
        <ele>1859.123657</ele>
        <time>2021-12-05T11:07:06.624Z</time>
      </trkpt>
      <trkpt lat="39.92868" lon="41.28476">
        <ele>1852.194049</ele>
        <time>2021-12-05T11:08:37.615Z</time>
      </trkpt>
      <trkpt lat="39.92674" lon="41.28402">
        <ele>1858.089956</ele>
        <time>2021-12-05T11:10:20.633Z</time>
      </trkpt>
      <trkpt lat="39.92478" lon="41.28318">
        <ele>1866.493815</ele>
        <time>2021-12-05T11:12:07.611Z</time>
      </trkpt>
      <trkpt lat="39.92346" lon="41.28163">
        <ele>1875.426509</ele>
        <time>2021-12-05T11:13:45.604Z</time>
      </trkpt>
      <trkpt lat="39.92249" lon="41.27913">
        <ele>1876.755773</ele>
        <time>2021-12-05T11:15:15.660Z</time>
      </trkpt>
      <trkpt lat="39.92069" lon="41.27953">
        <ele>1886.541927</ele>
        <time>2021-12-05T11:16:48.609Z</time>
      </trkpt>
      <trkpt lat="39.91897" lon="41.27838">
        <ele>1892.885283</ele>
        <time>2021-12-05T11:18:29.616Z</time>
      </trkpt>
      <trkpt lat="39.91742" lon="41.27735">
        <ele>1898.394236</ele>
        <time>2021-12-05T11:20:02.604Z</time>
      </trkpt>
      <trkpt lat="39.91625" lon="41.27499">
        <ele>1895.102608</ele>
        <time>2021-12-05T11:20:51.598Z</time>
      </trkpt>
      <trkpt lat="39.91495" lon="41.27276">
        <ele>1898.827925</ele>
        <time>2021-12-05T11:21:36.598Z</time>
      </trkpt>
      <trkpt lat="39.91346" lon="41.27071">
        <ele>1902.71404</ele>
        <time>2021-12-05T11:22:55.613Z</time>
      </trkpt>
      <trkpt lat="39.91168" lon="41.27063">
        <ele>1908.14858</ele>
        <time>2021-12-05T11:24:43.592Z</time>
      </trkpt>
      <trkpt lat="39.911" lon="41.2702">
        <ele>1908.14858</ele>
        <time>2021-12-05T11:28:35.495Z</time>
      </trkpt>
    </trkseg>
  </trk>
</gpx>